EDDC/DRS METAR and TAF weather

Enter ICAO airport designator
Station Type Date Time Source
EDDC METAR 2022/08/13 12:20 UTC NOAA

EDDC 131220Z AUTO 04009KT 010V070 9999 FEW032 BKN045 23/15 Q1017


Station Type Date Time Source
EDDC Decoded METAR 2022/08/13 12:20 UTC NOAA

Dresden-Klotzsche, Germany (EDDC) 51-08N 013-45E 232M
Aug 13, 2022 - 08:20 AM EDT / 2022.08.13 1220 UTC
Wind: from the NE (040 degrees) at 10 MPH (9 KT) (direction variable):0
Visibility: greater than 7 mile(s):0
Sky conditions: mostly cloudy
Temperature: 73 F (23 C)
Dew Point: 59 F (15 C)
Relative Humidity: 60%
Pressure (altimeter): 30.03 in. Hg (1017 hPa)
ob: EDDC 131220Z AUTO 04009KT 010V070 9999 FEW032 BKN045 23/15 Q1017
cycle: 12

Station Type Date Time Source
EDDC TAF 2022/08/13 12:27 UTC NOAA

TAF EDDC 131100Z 1312/1412 07008KT CAVOK PROB40
TEMPO 1312/1319 SHRA BKN040CB
BECMG 1316/1319 04003KT PROB30
TEMPO 1401/1406 4000 BR BKN012
BECMG 1407/1410 06008KT

Example: see airport list